Merry Christmas and Happy New Year!

 

Sretan Božić i Nova godina!

 

METAR

METAR LDZA 051000Z 07010KT 020V120 CAVOK 15/M01 Q1027 NOSIG =
METAR LDSP 051000Z 07017KT 040V100 CAVOK 21/M02 Q1018 NOSIG=
METAR LDDU 051000Z 04025G37KT 010V080 CAVOK 15/00 Q1015 NOSIG =
METAR LDZD 051000Z 06022G32KT 020V100 CAVOK 19/M01 Q1020 TEMPO 05022KT =
METAR LDPL 051000Z 06018KT CAVOK 17/M03 Q1023 TEMPO 06020G30KT=
METAR LDOS 051000Z 04010KT CAVOK 16/02 Q1026=
METAR LDRI 051000Z 06012KT 360V120 CAVOK 17/M04 Q1023=
METAR LDLO 051000Z 02023KT CAVOK 17/M00 Q1022=

TAF

TAF LDZA 050525Z 0506/0606 03008KT CAVOK
                 TX18/0513Z TN03/0604Z
           TEMPO 0506/0516 04012KT=
TAF AMD LDSP 050733Z 0507/0606 05012KT CAVOK
                     TX21/0512Z TN11/0604Z
        PROB40 TEMPO 0507/0516 05015G30KT=
TAF AMD LDDU 050733Z 0507/0606 05020G35KT CAVOK
                     TX20/0512Z TN13/0604Z
               BECMG 0512/0514 29009KT
               BECMG 0518/0520 08012KT=
TAF LDZD 050525Z 0506/0606 05015KT CAVOK
                 TX21/0513Z TN10/0605Z
    PROB40 TEMPO 0506/0520 05020G30KT=
TAF LDPL 050525Z 0506/0606 06015KT CAVOK
                 TX20/0513Z TN10/0605Z
    PROB40 TEMPO 0506/0522 06020G30KT=
TAF LDOS 050525Z 0506/0606 06008KT CAVOK
                 TX20/0513Z TN05/0506Z
           BECMG 0600/0602 12010KT=
TAF AMD LDSB 041404Z 0414/0512 CNL=
TAF LDRI 050525Z 0506/0606 04012KT CAVOK
                 TX20/0513Z TN11/0605Z
           TEMPO 0506/0600 04018G32KT
    PROB30 TEMPO 0506/0518 32010KT=
TAF LDLO 050605Z 0507/0606 02015KT CAVOK
                 TX19/0513Z TN12/0605Z
    PROB40 TEMPO 0507/0518 02020G30KT
           BECMG 0522/0600 02008KT=

SIGMET

AIRMET

LDZO AIRMET 8 VALID 050830/051230 LDZA-
LDZO ZAGREB FIR MOD TURB FCST WI N4534 E01430 - N4233 E01834 - N4125
E01818 - N4343 E01454 - N4533 E01322 - N4534 E01430 SFC/7000FT STNR
NC=
LDZO AIRMET 9 VALID 050830/051230 LDZA-
LDZO ZAGREB FIR MOD MTW FCST S OF LINE N4331 E01429 - N4421 E01613 -
N4234 E01827 ABV 7000FT STNR NC=

Remark

Ukoliko se brzina i smjer vjetra ne mogu odrediti zbog privremenog kvara sustava/indikatora,
informacija o vjetru u METAR izvješću bit će prikazana kao "/////KT".

 

Disclaimer

 

In case of temporary system/sensor failure, wind speed and direction data will be represented as "/////KT" in METAR report.

 

If you cannot log in with your user account, please contact stjepko.jancijev@crocontrol.hr.
Specifically, the website deactivates user accounts that have not been used for more than 365 days, so they must be reactivated.
 

         

      Politika MET podataka      

 

Ukoliko se svojim korisničkim računom ne možete logirati na web stranicu, molim vas da se obratite na stjepko.jancijev@crocontrol.hr.

Naime, web stranica deaktivira korisničke račune koji nisu korišteni više od 365 dana te ih je potrebno ponovno aktivirati.